createdAt,value
2022-11-05T00:00:19.318Z,98804.22
2022-11-05T00:02:45.781Z,98815.53
2022-11-05T00:05:12.922Z,98821.66
2022-11-05T00:07:47.758Z,98823.31
2022-11-05T00:10:20.030Z,98822.13
2022-11-05T00:12:46.795Z,98822.78
2022-11-05T00:15:13.318Z,98826.16
2022-11-05T00:17:40.765Z,98835.78
2022-11-05T00:20:09.095Z,98839.13
2022-11-05T00:22:35.555Z,98846.28
2022-11-05T00:25:02.016Z,98846.72
2022-11-05T00:27:28.378Z,98832.78
2022-11-05T00:29:55.060Z,98834.97
2022-11-05T00:32:21.608Z,98855.06
2022-11-05T00:34:48.106Z,98852.41
2022-11-05T00:37:14.544Z,98852.88
2022-11-05T00:39:40.883Z,98856.16
2022-11-05T00:42:07.533Z,98856.16
2022-11-05T00:44:34.050Z,98856.00
2022-11-05T00:47:00.395Z,98864.44
2022-11-05T00:49:27.039Z,98867.31
2022-11-05T00:51:53.587Z,98869.31
2022-11-05T00:54:19.906Z,98876.28
2022-11-05T00:56:46.516Z,98874.63
2022-11-05T00:59:13.122Z,98876.63
2022-11-05T01:01:39.495Z,98886.28
2022-11-05T01:04:05.956Z,98881.13
2022-11-05T01:06:32.417Z,98885.28
2022-11-05T01:08:58.979Z,98890.03
2022-11-05T01:11:25.584Z,98886.56
2022-11-05T01:13:52.045Z,98891.88
2022-11-05T01:16:18.589Z,98889.94
2022-11-05T01:18:45.244Z,98897.75
2022-11-05T01:21:13.669Z,98895.00
2022-11-05T01:23:40.391Z,98897.81
2022-11-05T01:26:06.971Z,98904.31
2022-11-05T01:28:33.423Z,98908.47
2022-11-05T01:30:59.872Z,98909.94
2022-11-05T01:33:26.379Z,98915.81
2022-11-05T01:35:52.799Z,98916.44
2022-11-05T01:38:19.475Z,98914.25
2022-11-05T01:40:46.307Z,98919.91
2022-11-05T01:43:21.591Z,98926.63
2022-11-05T01:45:51.140Z,98918.28
2022-11-05T01:48:22.656Z,98923.28
2022-11-05T01:50:55.362Z,98922.66
2022-11-05T01:54:00.367Z,98917.34
2022-11-05T01:56:33.344Z,98924.31
2022-11-05T01:59:06.431Z,98931.94
2022-11-05T02:01:33.629Z,98925.91
2022-11-05T02:04:04.328Z,98929.03
2022-11-05T02:06:34.746Z,98932.25
2022-11-05T02:09:12.524Z,98931.22
2022-11-05T02:11:38.941Z,98934.09
2022-11-05T02:14:05.902Z,98932.34
2022-11-05T02:16:46.893Z,98937.66
2022-11-05T02:19:13.221Z,98931.34
2022-11-05T02:22:07.660Z,98930.69
2022-11-05T02:24:39.755Z,98928.22
2022-11-05T02:27:28.583Z,98929.38
2022-11-05T02:30:22.546Z,98933.88
2022-11-05T02:33:03.460Z,98934.59
2022-11-05T02:35:38.942Z,98935.66
2022-11-05T02:38:31.380Z,98938.31
2022-11-05T02:41:22.481Z,98936.84
2022-11-05T02:44:19.867Z,98944.53
2022-11-05T02:46:51.495Z,98936.06
2022-11-05T02:49:30.507Z,98938.38
2022-11-05T02:51:59.130Z,98939.50
2022-11-05T02:54:32.185Z,98941.88
2022-11-05T02:57:00.894Z,98936.38
2022-11-05T02:59:27.320Z,98941.34
2022-11-05T03:01:54.641Z,98937.38
2022-11-05T03:04:23.883Z,98941.69
2022-11-05T03:06:55.948Z,98937.75
2022-11-05T03:09:50.317Z,98940.75
2022-11-05T03:12:44.414Z,98934.25
2022-11-05T03:15:16.639Z,98938.69
2022-11-05T03:17:59.915Z,98939.81
2022-11-05T03:20:35.962Z,98944.66
2022-11-05T03:23:20.485Z,98944.19
2022-11-05T03:25:54.189Z,98939.03
2022-11-05T03:28:25.021Z,98947.66
2022-11-05T03:30:55.035Z,98950.34
2022-11-05T03:33:27.411Z,98952.16
2022-11-05T03:36:02.480Z,98951.50
2022-11-05T03:38:33.814Z,98954.31
2022-11-05T03:41:04.856Z,98960.66
2022-11-05T03:43:35.837Z,98958.94
2022-11-05T03:46:08.079Z,98962.25
2022-11-05T03:48:41.681Z,98964.56
2022-11-05T03:51:32.775Z,98969.38
2022-11-05T03:54:00.921Z,98970.81
2022-11-05T03:56:40.608Z,98982.00
2022-11-05T03:59:10.234Z,98976.22
2022-11-05T04:01:38.376Z,98978.25
2022-11-05T04:04:08.970Z,98981.22
2022-11-05T04:06:35.853Z,98976.25
2022-11-05T04:09:02.492Z,98978.75
2022-11-05T04:11:29.172Z,98981.44
2022-11-05T04:13:55.512Z,98982.25
2022-11-05T04:16:21.919Z,98981.06
2022-11-05T04:18:48.526Z,98987.22
2022-11-05T04:21:15.229Z,98994.50
2022-11-05T04:23:41.573Z,99000.44
2022-11-05T04:26:08.057Z,98993.47
2022-11-05T04:28:34.567Z,99009.44
2022-11-05T04:31:00.993Z,99004.59
2022-11-05T04:33:27.402Z,98999.63
2022-11-05T04:35:53.861Z,99011.94
2022-11-05T04:38:20.497Z,99016.59
2022-11-05T04:40:48.090Z,99015.44
2022-11-05T04:43:17.580Z,99012.88
2022-11-05T04:45:45.201Z,99011.72
2022-11-05T04:48:12.088Z,99025.19
2022-11-05T04:50:39.490Z,99027.31
2022-11-05T04:53:05.899Z,99031.16
2022-11-05T04:55:32.699Z,99044.47
2022-11-05T04:57:59.118Z,99030.34
2022-11-05T05:00:25.550Z,99032.47
2022-11-05T05:02:51.939Z,99039.97
2022-11-05T05:05:18.740Z,99040.16
2022-11-05T05:07:45.324Z,99041.38
2022-11-05T05:10:11.952Z,99049.03
2022-11-05T05:12:38.493Z,99044.56
2022-11-05T05:15:05.256Z,99055.69
2022-11-05T05:17:31.777Z,99055.84
2022-11-05T05:19:58.257Z,99052.00
2022-11-05T05:22:24.645Z,99053.88
2022-11-05T05:24:52.968Z,99060.03
2022-11-05T05:27:19.540Z,99056.38
2022-11-05T05:29:45.931Z,99057.09
2022-11-05T05:32:12.363Z,99060.72
2022-11-05T05:34:38.763Z,99048.28
2022-11-05T05:37:05.181Z,99053.28
2022-11-05T05:39:31.465Z,98987.31
2022-11-05T05:41:58.048Z,98980.44
2022-11-05T05:44:24.682Z,98966.91
2022-11-05T05:46:53.392Z,98978.50
2022-11-05T05:49:19.731Z,98969.19
2022-11-05T05:51:48.821Z,98971.66
2022-11-05T05:54:15.717Z,98975.97
2022-11-05T05:56:45.654Z,98974.16
2022-11-05T05:59:12.823Z,98976.47
2022-11-05T06:01:39.570Z,98977.63
2022-11-05T06:04:06.453Z,98984.78
2022-11-05T06:06:33.215Z,98987.91
2022-11-05T06:08:59.835Z,98988.91
2022-11-05T06:11:26.323Z,98987.91
2022-11-05T06:13:52.802Z,98994.06
2022-11-05T06:16:19.235Z,98996.38
2022-11-05T06:18:46.839Z,99003.34
2022-11-05T06:21:15.515Z,99003.34
2022-11-05T06:23:44.129Z,99008.50
2022-11-05T06:26:13.420Z,99010.50
2022-11-05T06:28:40.439Z,99012.84
2022-11-05T06:31:06.855Z,99019.50
2022-11-05T06:33:33.290Z,99031.78
2022-11-05T06:36:01.437Z,99043.09
2022-11-05T06:38:28.303Z,99041.75
2022-11-05T06:40:55.086Z,99055.91
2022-11-05T06:43:21.454Z,99042.91
2022-11-05T06:45:48.020Z,99052.19
2022-11-05T06:48:14.364Z,99052.38
2022-11-05T06:50:44.228Z,99060.00
2022-11-05T06:53:11.678Z,99056.03
2022-11-05T06:55:38.373Z,99071.47
2022-11-05T06:58:05.296Z,99063.94
2022-11-05T07:00:32.153Z,99080.22
2022-11-05T07:03:10.753Z,99084.88
2022-11-05T07:05:40.092Z,99090.88
2022-11-05T07:08:06.638Z,99093.72
2022-11-05T07:10:33.146Z,99098.53
2022-11-05T07:13:02.516Z,99111.16
2022-11-05T07:15:33.157Z,99107.97
2022-11-05T07:18:00.841Z,99113.94
2022-11-05T07:20:32.431Z,99119.44
2022-11-05T07:23:07.214Z,99126.63
2022-11-05T07:25:34.286Z,99130.44
2022-11-05T07:28:01.560Z,99135.41
2022-11-05T07:30:28.625Z,99141.53
2022-11-05T07:32:55.082Z,99157.09
2022-11-05T07:35:22.061Z,99151.53
2022-11-05T07:37:50.331Z,99152.19
2022-11-05T07:40:18.740Z,99159.78
2022-11-05T07:42:49.556Z,99166.78
2022-11-05T07:45:16.009Z,99178.69
2022-11-05T07:47:47.548Z,99187.94
2022-11-05T07:50:14.834Z,99188.97
2022-11-05T07:52:41.373Z,99196.63
2022-11-05T07:55:08.898Z,99209.66
2022-11-05T07:57:49.441Z,99239.75
2022-11-05T08:00:21.725Z,99266.22
2022-11-05T08:03:08.173Z,99281.44
2022-11-05T08:05:38.217Z,99289.03
2022-11-05T08:08:06.096Z,99305.19
2022-11-05T08:10:32.803Z,99314.63
2022-11-05T08:12:59.337Z,99321.31
2022-11-05T08:15:25.692Z,99333.47
2022-11-05T08:18:02.251Z,99306.22
2022-11-05T08:20:28.722Z,99283.94
2022-11-05T08:22:55.874Z,99271.13
2022-11-05T08:25:22.245Z,98917.31
2022-11-05T08:27:55.924Z,98918.25
2022-11-05T08:30:22.803Z,98925.44
2022-11-05T08:32:49.275Z,98926.41
2022-11-05T08:35:15.950Z,98927.88
2022-11-05T08:37:42.453Z,98933.78
2022-11-05T08:40:09.396Z,98934.69
2022-11-05T08:42:36.105Z,98937.00
2022-11-05T08:45:03.202Z,98942.88
2022-11-05T08:47:29.811Z,98945.44
2022-11-05T08:49:56.171Z,98950.56
2022-11-05T08:52:22.827Z,98954.63
2022-11-05T08:54:49.189Z,98951.41
2022-11-05T08:57:15.690Z,98957.13
2022-11-05T08:59:42.116Z,98961.53
2022-11-05T09:02:11.134Z,98962.50
2022-11-05T09:04:37.816Z,98963.53
2022-11-05T09:07:04.310Z,98971.06
2022-11-05T09:09:30.937Z,98974.44
2022-11-05T09:12:11.716Z,98977.00
2022-11-05T09:14:38.536Z,98982.84
2022-11-05T09:17:04.963Z,98983.91
2022-11-05T09:19:31.417Z,98984.09
2022-11-05T09:21:58.295Z,98989.41
2022-11-05T09:24:24.749Z,98989.94
2022-11-05T09:26:51.308Z,98992.31
2022-11-05T09:29:17.714Z,98994.41
2022-11-05T09:31:44.027Z,99009.22
2022-11-05T09:34:10.499Z,99001.78
2022-11-05T09:36:36.824Z,99001.88
2022-11-05T09:39:03.240Z,99003.25
2022-11-05T09:41:35.991Z,99010.09
2022-11-05T09:44:09.965Z,99000.09
2022-11-05T09:46:45.788Z,99010.34
2022-11-05T09:49:49.892Z,99009.34
2022-11-05T09:52:22.380Z,99007.63
2022-11-05T09:54:49.387Z,99010.22
2022-11-05T09:57:20.251Z,99008.31
2022-11-05T09:59:48.778Z,99013.25
2022-11-05T10:02:24.399Z,99015.03
2022-11-05T10:04:54.276Z,99025.47
2022-11-05T10:07:25.242Z,99018.19
2022-11-05T10:09:57.625Z,99022.75
2022-11-05T10:12:52.543Z,99025.31
2022-11-05T10:15:24.748Z,99026.81
2022-11-05T10:17:57.793Z,99034.47
2022-11-05T10:20:31.992Z,99036.13
2022-11-05T10:23:22.341Z,99038.06
2022-11-05T10:25:54.838Z,99042.00
2022-11-05T10:28:24.705Z,99047.78
2022-11-05T10:30:57.012Z,99051.75
2022-11-05T10:33:34.303Z,99049.75
2022-11-05T10:36:06.690Z,99044.22
2022-11-05T10:38:34.239Z,99051.03
2022-11-05T10:41:11.716Z,99051.81
2022-11-05T10:43:48.081Z,99052.88
2022-11-05T10:46:40.398Z,99059.22
2022-11-05T10:49:25.547Z,99068.16
2022-11-05T10:51:55.897Z,99065.38
2022-11-05T10:54:29.833Z,99063.34
2022-11-05T10:56:56.286Z,99064.56
2022-11-05T10:59:28.324Z,99065.59
2022-11-05T11:02:03.291Z,99063.25
2022-11-05T11:04:36.471Z,99062.56
2022-11-05T11:07:04.723Z,99056.78
2022-11-05T11:09:33.439Z,99063.59
2022-11-05T11:12:14.143Z,99068.91
2022-11-05T11:14:40.634Z,99063.41
2022-11-05T11:17:25.168Z,99064.03
2022-11-05T11:19:51.509Z,99062.81
2022-11-05T11:22:20.239Z,99057.78
2022-11-05T11:24:51.997Z,99060.75
2022-11-05T11:27:23.831Z,99074.06
2022-11-05T11:29:57.762Z,99067.38
2022-11-05T11:32:28.603Z,99067.53
2022-11-05T11:34:55.517Z,99069.84
2022-11-05T11:37:26.478Z,99070.97
2022-11-05T11:40:20.325Z,99073.25
2022-11-05T11:42:53.587Z,99072.50
2022-11-05T11:45:41.836Z,99072.41
2022-11-05T11:48:17.346Z,99076.13
2022-11-05T11:50:46.484Z,99070.97
2022-11-05T11:53:22.155Z,99067.16
2022-11-05T11:55:54.824Z,99065.47
2022-11-05T11:58:23.529Z,99062.94
2022-11-05T12:00:59.684Z,99067.22
2022-11-05T12:03:42.605Z,99060.06
2022-11-05T12:06:21.183Z,99061.25
2022-11-05T12:09:11.183Z,99065.75
2022-11-05T12:11:49.624Z,99066.81
2022-11-05T12:14:34.596Z,99069.31
2022-11-05T12:17:45.522Z,99061.84
2022-11-05T12:20:18.095Z,99068.03
2022-11-05T12:23:11.896Z,99064.34
2022-11-05T12:26:07.691Z,99061.56
2022-11-05T12:29:17.223Z,99059.47
2022-11-05T12:32:04.487Z,99068.94
2022-11-05T12:34:48.341Z,99057.56
2022-11-05T12:37:37.735Z,99054.44
2022-11-05T12:40:14.208Z,99061.91
2022-11-05T12:43:00.956Z,99056.59
2022-11-05T12:45:48.510Z,99053.38
2022-11-05T12:48:37.371Z,99049.00
2022-11-05T12:51:22.688Z,99050.03
2022-11-05T12:54:26.578Z,99049.28
2022-11-05T12:57:01.607Z,99054.84
2022-11-05T12:59:36.989Z,99053.97
2022-11-05T13:02:12.829Z,99045.41
2022-11-05T13:04:55.102Z,99044.19
2022-11-05T13:07:30.038Z,99048.59
2022-11-05T13:10:06.000Z,99039.72
2022-11-05T13:12:37.435Z,99044.72
2022-11-05T13:15:15.236Z,99050.25
2022-11-05T13:17:55.458Z,99050.75
2022-11-05T13:20:26.355Z,99054.28
2022-11-05T13:22:56.165Z,99059.19
2022-11-05T13:25:27.745Z,99061.28
2022-11-05T13:28:21.299Z,99057.53
2022-11-05T13:30:51.345Z,99058.63
2022-11-05T13:33:30.673Z,99052.06
2022-11-05T13:36:08.756Z,99044.38
2022-11-05T13:38:35.481Z,99050.56
2022-11-05T13:41:40.249Z,99051.44
2022-11-05T13:44:15.858Z,99054.59
2022-11-05T13:47:16.849Z,99047.28
2022-11-05T13:49:55.164Z,99048.69
2022-11-05T13:52:39.691Z,99047.13
2022-11-05T13:55:27.325Z,99051.50
2022-11-05T13:58:12.547Z,99051.28
2022-11-05T14:00:55.108Z,99052.31
2022-11-05T14:03:22.035Z,99050.19
2022-11-05T14:05:57.772Z,99057.09
2022-11-05T14:08:27.813Z,99051.00
2022-11-05T14:11:05.207Z,99062.97
2022-11-05T14:13:39.848Z,99060.38
2022-11-05T14:16:06.343Z,99061.66
2022-11-05T14:18:45.702Z,99064.25
2022-11-05T14:21:27.333Z,99057.44
2022-11-05T14:23:58.541Z,99070.78
2022-11-05T14:26:30.719Z,99072.56
2022-11-05T14:29:03.367Z,99071.00
2022-11-05T14:32:09.200Z,99070.25
2022-11-05T14:34:53.915Z,99075.59
2022-11-05T14:37:36.919Z,99080.84
2022-11-05T14:40:40.106Z,99084.81
2022-11-05T14:43:14.948Z,99083.16
2022-11-05T14:45:52.397Z,99090.63
2022-11-05T14:48:38.253Z,99086.28
2022-11-05T14:51:31.775Z,99090.03
2022-11-05T14:54:03.064Z,99087.50
2022-11-05T14:56:53.290Z,99095.41
2022-11-05T14:59:25.223Z,99101.91
2022-11-05T15:01:56.623Z,99102.09
2022-11-05T15:04:28.510Z,99111.28
2022-11-05T15:07:03.970Z,99105.47
2022-11-05T15:09:40.471Z,99100.72
2022-11-05T15:12:07.047Z,99104.34
2022-11-05T15:14:46.675Z,99106.31
2022-11-05T15:17:18.296Z,99104.47
2022-11-05T15:19:47.092Z,99117.69
2022-11-05T15:22:26.691Z,99109.69
2022-11-05T15:24:53.183Z,99112.50
2022-11-05T15:27:34.388Z,99110.41
2022-11-05T15:30:19.015Z,99123.91
2022-11-05T15:32:45.635Z,99109.94
2022-11-05T15:35:28.452Z,99112.09
2022-11-05T15:38:01.765Z,99115.63
2022-11-05T15:40:32.444Z,99115.13
2022-11-05T15:43:28.596Z,99112.19
2022-11-05T15:46:07.213Z,99112.81
2022-11-05T15:48:35.698Z,99120.81
2022-11-05T15:51:02.285Z,99116.34
2022-11-05T15:54:08.308Z,99117.16
2022-11-05T15:56:40.201Z,99123.38
2022-11-05T15:59:19.003Z,99125.56
2022-11-05T16:01:49.992Z,99128.22
2022-11-05T16:04:21.442Z,99129.41
2022-11-05T16:06:50.882Z,99130.44
2022-11-05T16:09:32.168Z,99128.94
2022-11-05T16:12:20.311Z,99134.09
2022-11-05T16:15:09.622Z,99139.31
2022-11-05T16:17:45.000Z,99137.66
2022-11-05T16:20:20.659Z,99141.31
2022-11-05T16:22:49.652Z,99140.97
2022-11-05T16:25:35.903Z,99149.31
2022-11-05T16:28:03.000Z,99145.81
2022-11-05T16:30:29.512Z,99156.97
2022-11-05T16:33:04.174Z,99156.50
2022-11-05T16:35:30.709Z,99151.69
2022-11-05T16:37:57.107Z,99154.53
2022-11-05T16:40:25.611Z,99158.19
2022-11-05T16:42:53.859Z,99158.19
2022-11-05T16:45:23.396Z,99159.38
2022-11-05T16:47:52.063Z,99156.88
2022-11-05T16:50:27.261Z,99163.91
2022-11-05T16:52:53.698Z,99164.94
2022-11-05T16:55:20.503Z,99173.06
2022-11-05T16:57:50.983Z,99177.22
2022-11-05T17:00:20.300Z,99183.03
2022-11-05T17:02:47.497Z,99190.06
2022-11-05T17:05:25.693Z,99187.22
2022-11-05T17:07:52.719Z,99190.25
2022-11-05T17:10:20.447Z,99195.25
2022-11-05T17:12:47.098Z,99195.81
2022-11-05T17:15:16.165Z,99195.31
2022-11-05T17:17:42.943Z,99200.50
2022-11-05T17:20:43.115Z,99193.34
2022-11-05T17:23:14.674Z,99200.00
2022-11-05T17:25:45.991Z,99197.66
2022-11-05T17:28:13.536Z,99197.38
2022-11-05T17:30:41.939Z,99197.03
2022-11-05T17:33:10.220Z,99196.22
2022-11-05T17:35:40.921Z,99194.72
2022-11-05T17:38:08.014Z,99209.03
2022-11-05T17:40:36.321Z,99203.91
2022-11-05T17:43:04.808Z,99210.09
2022-11-05T17:45:31.568Z,99216.72
2022-11-05T17:47:57.873Z,99214.72
2022-11-05T17:50:24.544Z,99218.91
2022-11-05T17:52:51.079Z,99217.41
2022-11-05T17:55:17.576Z,99220.22
2022-11-05T17:57:50.279Z,99224.03
2022-11-05T18:00:24.157Z,99224.84
2022-11-05T18:02:53.110Z,99233.31
2022-11-05T18:05:22.293Z,99240.13
2022-11-05T18:07:49.770Z,99245.41
2022-11-05T18:10:16.846Z,99242.59
2022-11-05T18:12:44.295Z,99252.03
2022-11-05T18:15:10.971Z,99259.81
2022-11-05T18:17:37.976Z,99261.47
2022-11-05T18:20:06.374Z,99259.78
2022-11-05T18:22:32.837Z,99267.38
2022-11-05T18:24:59.198Z,99260.34
2022-11-05T18:27:25.801Z,99255.88
2022-11-05T18:29:52.186Z,99258.16
2022-11-05T18:32:18.526Z,99262.94
2022-11-05T18:34:45.401Z,99266.19
2022-11-05T18:37:11.822Z,99272.13
2022-11-05T18:39:38.867Z,99271.13
2022-11-05T18:42:05.412Z,99278.75
2022-11-05T18:44:36.263Z,99277.75
2022-11-05T18:47:06.364Z,99267.09
2022-11-05T18:49:32.995Z,99261.88
2022-11-05T18:51:59.632Z,99270.97
2022-11-05T18:54:26.084Z,99259.34
2022-11-05T18:56:53.977Z,99262.63
2022-11-05T18:59:38.592Z,99265.56
2022-11-05T19:02:07.823Z,99265.06
2022-11-05T19:04:38.939Z,99262.88
2022-11-05T19:07:06.197Z,99258.84
2022-11-05T19:09:36.636Z,99255.56
2022-11-05T19:12:04.375Z,99262.28
2022-11-05T19:14:31.406Z,99270.03
2022-11-05T19:16:59.062Z,99269.50
2022-11-05T19:19:25.850Z,99260.25
2022-11-05T19:21:52.469Z,99261.84
2022-11-05T19:24:18.877Z,99266.91
2022-11-05T19:26:45.485Z,99258.81
2022-11-05T19:29:11.940Z,99264.13
2022-11-05T19:31:38.645Z,99614.22
2022-11-05T19:34:05.324Z,99603.63
2022-11-05T19:36:33.003Z,99604.50
2022-11-05T19:39:01.981Z,99608.25
2022-11-05T19:41:28.392Z,99614.91
2022-11-05T19:43:55.476Z,99617.81
2022-11-05T19:46:23.445Z,99613.50
2022-11-05T19:48:50.814Z,99612.41
2022-11-05T19:51:22.950Z,99611.31
2022-11-05T19:53:50.349Z,99621.31
2022-11-05T19:56:19.780Z,99618.97
2022-11-05T19:58:46.240Z,99613.03
2022-11-05T20:01:14.368Z,99620.00
2022-11-05T20:03:41.512Z,99622.66
2022-11-05T20:06:14.934Z,99619.31
2022-11-05T20:08:59.890Z,99617.78
2022-11-05T20:11:28.870Z,99601.63
2022-11-05T20:13:55.364Z,99606.25
2022-11-05T20:16:27.868Z,99563.44
2022-11-05T20:18:54.693Z,99555.78
2022-11-05T20:21:21.083Z,99555.91
2022-11-05T20:23:47.638Z,99564.59
2022-11-05T20:26:14.617Z,99567.09
2022-11-05T20:28:42.131Z,99565.00
2022-11-05T20:31:11.893Z,99547.47
2022-11-05T20:33:39.011Z,99544.69
2022-11-05T20:36:07.475Z,99540.38
2022-11-05T20:38:34.920Z,99541.66
2022-11-05T20:41:06.938Z,99534.13
2022-11-05T20:43:33.722Z,99536.63
2022-11-05T20:46:00.137Z,99540.00
2022-11-05T20:48:26.499Z,99528.97
2022-11-05T20:50:52.958Z,99531.75
2022-11-05T20:53:19.489Z,99522.31
2022-11-05T20:55:47.934Z,99511.31
2022-11-05T20:58:16.569Z,99518.53
2022-11-05T21:00:53.605Z,99511.16
2022-11-05T21:03:20.927Z,99511.03
2022-11-05T21:05:56.504Z,99513.97
2022-11-05T21:08:23.138Z,99507.13
2022-11-05T21:10:51.429Z,99506.59
2022-11-05T21:13:19.693Z,99508.94
2022-11-05T21:15:51.394Z,99512.69
2022-11-05T21:18:20.005Z,99519.53
2022-11-05T21:20:47.200Z,99517.72
2022-11-05T21:23:14.816Z,99507.84
2022-11-05T21:25:42.815Z,99505.19
2022-11-05T21:28:11.008Z,99497.53
2022-11-05T21:30:40.691Z,99504.22
2022-11-05T21:33:07.993Z,99513.69
2022-11-05T21:35:34.577Z,99502.84
2022-11-05T21:38:00.976Z,99499.22
2022-11-05T21:40:27.426Z,99508.53
2022-11-05T21:42:54.001Z,99507.53
2022-11-05T21:45:20.330Z,99511.31
2022-11-05T21:47:47.132Z,99511.72
2022-11-05T21:50:15.254Z,99504.59
2022-11-05T21:52:44.718Z,99497.09
2022-11-05T21:55:12.440Z,99494.03
2022-11-05T21:57:39.751Z,99494.31
2022-11-05T22:00:09.031Z,99493.47
2022-11-05T22:02:35.741Z,99486.53
2022-11-05T22:05:02.372Z,99492.22
2022-11-05T22:07:32.823Z,99488.03
2022-11-05T22:09:59.794Z,99480.81
2022-11-05T22:12:26.844Z,99485.84
2022-11-05T22:14:54.301Z,99478.59
2022-11-05T22:17:21.535Z,99485.97
2022-11-05T22:19:47.992Z,99486.94
2022-11-05T22:22:14.916Z,99487.47
2022-11-05T22:24:41.729Z,99491.13
2022-11-05T22:27:12.452Z,99490.56
2022-11-05T22:29:38.978Z,99485.56
2022-11-05T22:32:05.935Z,99481.09
2022-11-05T22:34:32.567Z,99470.81
2022-11-05T22:36:59.290Z,99475.97
2022-11-05T22:39:25.682Z,99478.88
2022-11-05T22:41:56.879Z,99476.09
2022-11-05T22:44:24.954Z,99473.31
2022-11-05T22:46:51.876Z,99468.75
2022-11-05T22:49:18.978Z,99467.47
2022-11-05T22:51:45.702Z,99464.28
2022-11-05T22:54:12.701Z,99465.66
2022-11-05T22:56:41.459Z,99465.78
2022-11-05T22:59:11.440Z,99473.03
2022-11-05T23:01:38.707Z,99472.34
2022-11-05T23:04:05.227Z,99467.19
2022-11-05T23:06:32.967Z,99468.03
2022-11-05T23:08:59.906Z,99460.09
2022-11-05T23:11:26.483Z,99457.84
2022-11-05T23:13:52.899Z,99457.75
2022-11-05T23:16:19.474Z,99458.41
2022-11-05T23:18:45.983Z,99456.75
2022-11-05T23:21:12.333Z,99450.47
2022-11-05T23:23:38.837Z,99453.69
2022-11-05T23:26:05.247Z,99445.75
2022-11-05T23:28:31.679Z,99444.81
2022-11-05T23:30:58.750Z,99448.28
2022-11-05T23:33:25.700Z,99458.41
2022-11-05T23:35:52.133Z,99455.59
2022-11-05T23:38:18.564Z,99457.97
2022-11-05T23:40:45.213Z,99463.38
2022-11-05T23:43:11.637Z,99456.28
2022-11-05T23:45:39.863Z,99449.63
2022-11-05T23:48:17.198Z,99447.38
2022-11-05T23:50:56.574Z,99437.38
2022-11-05T23:53:23.586Z,99436.53
2022-11-05T23:55:50.388Z,99432.09
2022-11-05T23:58:17.618Z,99435.16
